createdAt,value
2017-04-12T07:02:06.780Z,958.92
2017-04-12T07:04:13.849Z,958.96
2017-04-12T07:06:21.190Z,959.01
2017-04-12T07:08:29.809Z,959.09
2017-04-12T07:10:36.862Z,959.16
2017-04-12T07:12:43.897Z,959.11
2017-04-12T07:14:51.018Z,959.15
2017-04-12T07:25:39.351Z,958.9
2017-04-12T07:27:52.807Z,958.87
2017-04-12T07:30:05.004Z,958.89
2017-04-12T07:36:11.382Z,958.86
2017-04-12T07:38:29.513Z,958.84
2017-04-12T07:40:41.901Z,958.79
2017-04-12T07:42:54.300Z,958.83
2017-04-12T07:45:06.570Z,958.95
2017-04-12T07:47:18.937Z,958.91
2017-04-12T07:49:31.232Z,958.96
2017-04-12T07:51:38.561Z,958.93
2017-04-12T07:53:45.769Z,958.94
2017-04-12T07:55:57.965Z,958.96
2017-04-12T07:58:10.304Z,958.86
2017-04-12T08:00:22.522Z,958.9
2017-04-12T08:02:34.857Z,958.81
2017-04-12T08:04:42.234Z,958.85
2017-04-12T08:06:54.478Z,958.86
2017-04-12T08:09:06.709Z,958.78
2017-04-12T08:11:18.935Z,958.79
2017-04-12T08:13:26.177Z,958.7
2017-04-12T08:15:38.567Z,958.76
2017-04-12T08:17:50.836Z,958.73
2017-04-12T08:20:03.398Z,958.74
2017-04-12T08:22:15.726Z,958.65
2017-04-12T08:24:28.062Z,958.66
2017-04-12T08:26:40.321Z,958.65
2017-04-12T08:28:52.570Z,958.57
2017-04-12T08:30:59.876Z,958.59
2017-04-12T08:33:12.049Z,958.6
2017-04-12T08:35:24.279Z,958.6
2017-04-12T08:37:36.656Z,958.57
2017-04-12T08:39:50.029Z,958.53
2017-04-12T08:42:02.376Z,958.53
2017-04-12T08:44:14.580Z,958.55
2017-04-12T08:46:26.798Z,958.56
2017-04-12T08:48:39.190Z,958.54
2017-04-12T08:50:51.461Z,958.56
2017-04-12T08:52:58.855Z,958.5
2017-04-12T08:55:09.393Z,958.49
2017-04-12T08:57:21.653Z,958.44
2017-04-12T08:59:33.981Z,958.38
2017-04-12T09:01:46.197Z,958.39
2017-04-12T09:03:58.509Z,958.36
2017-04-12T09:06:10.815Z,958.29
2017-04-12T09:08:23.163Z,958.3
2017-04-12T09:10:35.497Z,958.3
2017-04-12T09:12:47.760Z,958.23
2017-04-12T09:15:00.107Z,958.06
2017-04-12T09:17:12.432Z,957.83
2017-04-12T09:19:19.869Z,957.88
2017-04-12T09:21:32.149Z,957.72
2017-04-12T09:23:44.524Z,957.66
2017-04-12T09:25:56.993Z,957.59
2017-04-12T09:28:09.253Z,957.57
2017-04-12T09:30:21.477Z,957.45
2017-04-12T09:32:33.862Z,957.44
2017-04-12T09:34:46.142Z,957.32
2017-04-12T09:36:58.472Z,957.22
2017-04-12T09:39:12.163Z,957.21
2017-04-12T09:41:38.874Z,957.23
2017-04-12T09:44:00.101Z,957.31
2017-04-12T09:46:39.409Z,957.28
2017-04-12T09:49:23.281Z,957.25
2017-04-12T09:52:16.134Z,957.26
2017-04-12T09:55:08.771Z,957.21
2017-04-12T09:58:03.476Z,957.29
2017-04-12T10:01:00.248Z,957.26
2017-04-12T10:03:59.610Z,957.18
2017-04-12T10:06:59.209Z,957.29
2017-04-12T10:09:56.201Z,957.25
2017-04-12T10:12:53.724Z,957.22
2017-04-12T10:15:54.139Z,957.2
2017-04-12T10:18:55.251Z,957.2
2017-04-12T10:21:53.682Z,957.23
2017-04-12T10:24:58.483Z,957.17
2017-04-12T10:27:17.262Z,957.09
2017-04-12T10:29:29.623Z,957.09
2017-04-12T10:31:42.023Z,957.11
2017-04-12T10:33:54.404Z,957.1
2017-04-12T10:36:06.665Z,957.02
2017-04-12T10:38:18.971Z,956.98
2017-04-12T10:40:31.323Z,956.95
2017-04-12T10:42:43.682Z,956.88
2017-04-12T10:44:56.038Z,956.96
2017-04-12T10:47:08.317Z,956.87
2017-04-12T10:49:20.693Z,956.81
2017-04-12T10:51:33.103Z,956.84
2017-04-12T10:53:45.401Z,956.73
2017-04-12T10:55:57.793Z,956.72
2017-04-12T10:58:10.038Z,956.69
2017-04-12T11:00:22.531Z,956.72
2017-04-12T11:02:37.386Z,956.66
2017-04-12T11:04:49.778Z,956.64
2017-04-12T11:07:02.058Z,956.57
2017-04-12T11:09:14.411Z,956.55
2017-04-12T11:11:26.698Z,956.53
2017-04-12T11:13:39.040Z,956.52
2017-04-12T11:15:51.201Z,956.4
2017-04-12T11:18:03.830Z,956.36
2017-04-12T11:20:16.253Z,956.34
2017-04-12T11:22:28.490Z,956.39
2017-04-12T11:24:40.733Z,956.29
2017-04-12T11:26:52.969Z,956.18
2017-04-12T11:29:05.227Z,956.19
2017-04-12T11:31:17.551Z,956.14
2017-04-12T11:33:29.970Z,956.14
2017-04-12T11:35:42.429Z,956.08
2017-04-12T11:38:12.324Z,956.01
2017-04-12T11:40:24.639Z,955.97
2017-04-12T11:42:36.995Z,955.95
2017-04-12T11:44:50.290Z,955.92
2017-04-12T11:47:02.689Z,955.87
2017-04-12T11:49:15.160Z,955.8
2017-04-12T11:51:27.526Z,955.75
2017-04-12T11:53:40.876Z,955.87
2017-04-12T11:55:53.090Z,955.78
2017-04-12T11:58:06.371Z,955.69
2017-04-12T12:00:17.069Z,955.64
2017-04-12T12:02:34.013Z,955.57
2017-04-12T12:04:46.240Z,955.54
2017-04-12T12:06:58.650Z,955.55
2017-04-12T12:09:10.941Z,955.59
2017-04-12T12:11:18.236Z,955.52
2017-04-12T12:13:30.825Z,955.5
2017-04-12T12:15:43.237Z,955.47
2017-04-12T12:17:55.470Z,955.35
2017-04-12T12:20:07.786Z,955.41
2017-04-12T12:22:15.136Z,955.36
2017-04-12T12:24:27.355Z,955.3
2017-04-12T12:26:39.767Z,955.23
2017-04-12T12:28:52.034Z,955.25
2017-04-12T12:31:04.245Z,955.31
2017-04-12T12:33:16.597Z,955.14
2017-04-12T12:35:23.984Z,955.06
2017-04-12T12:37:36.283Z,955.05
2017-04-12T12:39:48.732Z,955.02
2017-04-12T12:42:00.988Z,955.02
2017-04-12T12:44:13.263Z,954.89
2017-04-12T12:46:25.426Z,954.92
2017-04-12T12:48:32.747Z,954.77
2017-04-12T12:50:40.102Z,954.73
2017-04-12T12:52:52.662Z,954.74
2017-04-12T12:55:04.985Z,954.7
2017-04-12T12:57:17.529Z,954.55
2017-04-12T12:59:29.830Z,954.61
2017-04-12T13:01:42.356Z,954.54
2017-04-12T13:03:52.866Z,954.47
2017-04-12T13:06:05.241Z,954.52
2017-04-12T13:08:17.609Z,954.43
2017-04-12T13:10:29.882Z,954.47
2017-04-12T13:12:42.149Z,954.34
2017-04-12T13:14:54.378Z,954.38
2017-04-12T13:17:06.621Z,954.29
2017-04-12T13:19:18.932Z,954.28
2017-04-12T13:21:31.188Z,954.22
2017-04-12T13:23:43.451Z,954.13
2017-04-12T13:25:55.775Z,954.13
2017-04-12T13:28:08.055Z,954.07
2017-04-12T13:30:20.341Z,954.01
2017-04-12T13:32:32.781Z,953.97
2017-04-12T13:34:45.099Z,953.91
2017-04-12T13:36:57.402Z,953.85
2017-04-12T13:39:09.764Z,953.81
2017-04-12T13:41:22.156Z,953.77
2017-04-12T13:43:34.392Z,953.66
2017-04-12T13:45:41.694Z,953.64
2017-04-12T13:47:54.109Z,953.58
2017-04-12T13:50:06.408Z,953.56
2017-04-12T13:52:13.743Z,953.52
2017-04-12T13:54:25.980Z,953.54
2017-04-12T13:56:33.275Z,953.47
2017-04-12T13:58:45.476Z,953.44
2017-04-12T14:00:57.934Z,953.37
2017-04-12T14:03:10.224Z,953.35
2017-04-12T14:05:26.178Z,953.39
2017-04-12T14:07:38.438Z,953.33
2017-04-12T14:09:45.919Z,953.38
2017-04-12T14:11:58.328Z,953.23
2017-04-12T14:14:10.826Z,953.26
2017-04-12T14:16:23.091Z,953.26
2017-04-12T14:18:35.695Z,953.27
2017-04-12T14:20:47.913Z,953.21
2017-04-12T14:23:00.352Z,953.2
2017-04-12T14:25:12.603Z,953.17
2017-04-12T14:27:18.169Z,953.22
2017-04-12T14:29:30.446Z,953.23
2017-04-12T14:31:42.776Z,953.19
2017-04-12T14:33:55.118Z,953.19
2017-04-12T14:36:07.385Z,953.18
2017-04-12T14:38:19.664Z,953.21
2017-04-12T14:40:32.072Z,953.08
2017-04-12T14:42:44.408Z,953.09
2017-04-12T14:44:56.837Z,953.01
2017-04-12T14:47:09.026Z,953.01
2017-04-12T14:49:21.214Z,952.94
2017-04-12T14:51:28.596Z,952.89
2017-04-12T14:53:41.607Z,952.9
2017-04-12T14:55:53.978Z,952.88
2017-04-12T14:58:06.212Z,952.85
2017-04-12T15:00:18.583Z,952.82
2017-04-12T15:02:27.412Z,952.78
2017-04-12T15:04:39.745Z,952.68
2017-04-12T15:06:52.111Z,952.7
2017-04-12T15:09:04.282Z,952.66
2017-04-12T15:11:11.756Z,952.66
2017-04-12T15:13:23.990Z,952.6
2017-04-12T15:15:36.233Z,952.59
2017-04-12T15:17:43.590Z,952.58
2017-04-12T15:19:55.981Z,952.52
2017-04-12T15:22:08.219Z,952.46
2017-04-12T15:24:20.602Z,952.45
2017-04-12T15:26:32.854Z,952.37
2017-04-12T15:28:45.189Z,952.38
2017-04-12T15:30:59.415Z,952.35
2017-04-12T15:33:06.871Z,952.3
2017-04-12T15:35:19.093Z,952.31
2017-04-12T15:37:31.567Z,952.35
2017-04-12T15:39:44.075Z,952.31
2017-04-12T15:41:56.431Z,952.23
2017-04-12T15:44:08.928Z,952.36
2017-04-12T15:46:21.199Z,952.27
2017-04-12T15:48:33.555Z,952.34
2017-04-12T15:50:45.944Z,952.21
2017-04-12T15:52:58.175Z,952.26
2017-04-12T15:55:10.524Z,952.24
2017-04-12T15:57:22.751Z,952.24
2017-04-12T15:59:34.993Z,952.28
2017-04-12T16:01:47.299Z,952.12
2017-04-12T16:03:59.632Z,952.09
2017-04-12T16:06:11.963Z,952.1
2017-04-12T16:08:27.033Z,952
2017-04-12T16:10:39.458Z,951.99
2017-04-12T16:12:52.788Z,952.01
2017-04-12T16:15:05.023Z,952.08
2017-04-12T16:17:17.362Z,952.04
2017-04-12T16:19:27.540Z,952.13
2017-04-12T16:21:39.803Z,952.1
2017-04-12T16:23:52.049Z,952.09
2017-04-12T16:26:04.347Z,952.13
2017-04-12T16:28:16.560Z,952.03
2017-04-12T16:30:28.879Z,952.1
2017-04-12T16:32:41.130Z,952.03
2017-04-12T16:34:53.398Z,952.03
2017-04-12T16:37:05.866Z,952.05
2017-04-12T16:39:13.151Z,952.04
2017-04-12T16:41:27.655Z,951.97
2017-04-12T16:43:39.978Z,952.01
2017-04-12T16:45:52.307Z,952.01
2017-04-12T16:48:04.701Z,951.99
2017-04-12T16:50:17.014Z,952
2017-04-12T16:52:29.253Z,951.94
2017-04-12T16:54:41.522Z,951.94
2017-04-12T16:56:48.966Z,951.88
2017-04-12T16:59:01.211Z,951.91
2017-04-12T17:01:14.437Z,951.89
2017-04-12T17:03:26.782Z,951.88
2017-04-12T17:05:34.027Z,951.88
2017-04-12T17:07:46.352Z,951.83
2017-04-12T17:09:58.551Z,951.82
2017-04-12T17:12:10.861Z,951.78
2017-04-12T17:14:18.173Z,951.79
2017-04-12T17:16:30.445Z,951.81
2017-04-12T17:18:42.821Z,951.75
2017-04-12T17:20:55.077Z,951.74
2017-04-12T17:23:02.396Z,951.73
2017-04-12T17:25:14.550Z,951.68
2017-04-12T17:27:21.895Z,951.66
2017-04-12T17:29:34.236Z,951.68
2017-04-12T17:31:46.610Z,951.72
2017-04-12T17:33:58.907Z,951.72
2017-04-12T17:36:11.355Z,951.8
2017-04-12T17:38:23.609Z,951.75
2017-04-12T17:40:35.916Z,951.76
2017-04-12T17:42:48.175Z,951.75
2017-04-12T17:45:00.436Z,951.74
2017-04-12T17:47:12.755Z,951.76
2017-04-12T17:49:25.010Z,951.73
2017-04-12T17:51:38.228Z,951.77
2017-04-12T17:53:50.610Z,951.74
2017-04-12T17:56:03.016Z,951.75
2017-04-12T17:58:15.359Z,951.72
2017-04-12T18:00:27.595Z,951.73
2017-04-12T18:02:39.927Z,951.76
2017-04-12T18:04:52.195Z,951.7
2017-04-12T18:06:59.458Z,951.74
2017-04-12T18:09:11.805Z,951.77
2017-04-12T18:11:24.106Z,951.71
2017-04-12T18:13:36.446Z,951.74
2017-04-12T18:15:48.818Z,951.71
2017-04-12T18:18:01.201Z,951.67
2017-04-12T18:20:13.706Z,951.69
2017-04-12T18:22:25.897Z,951.66
2017-04-12T18:24:38.311Z,951.69
2017-04-12T18:29:13.418Z,951.68
2017-04-12T18:31:25.695Z,951.69
2017-04-12T18:33:38.052Z,951.68
2017-04-12T18:35:50.368Z,951.67
2017-04-12T18:38:02.692Z,951.72
2017-04-12T18:40:14.887Z,951.77
2017-04-12T18:42:27.200Z,951.81
2017-04-12T18:44:39.430Z,951.84
2017-04-12T18:46:51.748Z,951.88
2017-04-12T18:49:03.962Z,951.91
2017-04-12T18:51:16.102Z,951.91
2017-04-12T18:53:28.331Z,951.84
2017-04-12T18:55:41.556Z,951.83
2017-04-12T18:57:49.068Z,951.89
2017-04-12T19:00:01.516Z,951.84
2017-04-12T19:02:13.804Z,951.84
2017-04-12T19:04:26.175Z,951.81
2017-04-12T19:06:47.179Z,951.88
2017-04-12T19:09:06.301Z,951.75
2017-04-12T19:11:18.641Z,951.8
2017-04-12T19:13:32.782Z,951.76
2017-04-12T19:15:45.614Z,951.78
2017-04-12T19:18:14.726Z,951.79
2017-04-12T19:20:39.154Z,951.78
2017-04-12T19:22:51.636Z,951.78
2017-04-12T19:25:04.014Z,951.76
2017-04-12T19:27:28.876Z,951.83
2017-04-12T19:29:41.184Z,951.86
2017-04-12T19:32:03.752Z,951.9
2017-04-12T19:34:16.090Z,951.85
2017-04-12T19:36:37.739Z,951.9
2017-04-12T19:38:59.318Z,951.91
2017-04-12T19:41:12.583Z,951.94
2017-04-12T19:43:24.996Z,951.9
2017-04-12T19:45:42.420Z,951.94
2017-04-12T19:47:55.853Z,951.96
2017-04-12T19:50:09.167Z,951.91
2017-04-12T19:52:17.920Z,951.92
2017-04-12T19:54:30.221Z,951.96
2017-04-12T19:56:42.526Z,952.07
2017-04-12T19:58:54.992Z,952.15
2017-04-12T20:01:13.383Z,952.09
2017-04-12T20:03:26.237Z,952.08
2017-04-12T20:05:38.621Z,952.1
2017-04-12T20:07:50.956Z,952.18
2017-04-12T20:10:03.388Z,952.17
2017-04-12T20:12:15.818Z,952.16
2017-04-12T20:14:23.262Z,952.18
2017-04-12T20:16:35.498Z,952.15
2017-04-12T20:19:11.260Z,952.12
2017-04-12T20:21:34.986Z,952.06
2017-04-12T20:23:47.383Z,951.99
2017-04-12T20:26:00.784Z,951.92
2017-04-12T20:28:13.068Z,951.92
2017-04-12T20:30:25.404Z,951.9
2017-04-12T20:32:38.297Z,951.91
2017-04-12T20:34:50.653Z,951.88
2017-04-12T20:36:58.341Z,951.83
2017-04-12T20:39:10.762Z,951.8
2017-04-12T20:41:23.090Z,951.82
2017-04-12T20:43:35.435Z,951.85
2017-04-12T20:45:47.840Z,951.9
2017-04-12T20:48:00.188Z,951.91
2017-04-12T20:50:12.622Z,951.96
2017-04-12T20:52:24.928Z,952.05
2017-04-12T20:54:37.343Z,952.04
2017-04-12T20:56:44.793Z,952.04
2017-04-12T20:58:57.229Z,951.96
2017-04-12T21:01:09.526Z,952
2017-04-12T21:03:21.899Z,951.89
2017-04-12T21:05:34.217Z,951.96
2017-04-12T21:08:03.118Z,951.96
2017-04-12T21:10:15.512Z,951.95
2017-04-12T21:12:50.649Z,952.01
2017-04-12T21:15:32.424Z,951.92
2017-04-12T21:18:24.070Z,951.97
2017-04-12T21:21:16.954Z,951.93
2017-04-12T21:24:01.598Z,951.9
2017-04-12T21:26:27.680Z,951.88
2017-04-12T21:28:41.462Z,951.87
2017-04-12T21:30:53.807Z,951.84
2017-04-12T21:33:06.138Z,951.9
2017-04-12T21:35:18.629Z,951.92
2017-04-12T21:37:31.055Z,951.88
2017-04-12T21:39:43.472Z,951.93
2017-04-12T21:41:55.708Z,951.95
2017-04-12T21:44:08.053Z,951.98
2017-04-12T21:46:20.353Z,951.97
2017-04-12T21:48:32.507Z,952
2017-04-12T21:50:44.726Z,952
2017-04-12T21:52:56.938Z,951.96
2017-04-12T21:55:09.172Z,951.94
2017-04-12T21:57:22.666Z,951.95
2017-04-12T21:59:28.265Z,951.95
2017-04-12T22:01:40.893Z,951.96
2017-04-12T22:03:54.575Z,951.99
2017-04-12T22:06:08.897Z,952.03
2017-04-12T22:08:21.638Z,952
2017-04-12T22:10:29.781Z,951.94
2017-04-12T22:12:43.802Z,952.01
2017-04-12T22:14:57.509Z,951.98
2017-04-12T22:17:10.880Z,951.95
2017-04-12T22:19:23.999Z,951.97
2017-04-12T22:21:36.318Z,951.96
2017-04-12T22:23:50.052Z,951.89
2017-04-12T22:26:02.825Z,951.93
2017-04-12T22:28:15.543Z,951.98
2017-04-12T22:30:28.252Z,952.01
2017-04-12T22:32:41.160Z,952.01
2017-04-12T22:34:48.564Z,952.03
2017-04-12T22:37:01.326Z,952.05
2017-04-12T22:39:14.655Z,952.04
2017-04-12T22:41:28.497Z,952.02
2017-04-12T22:43:41.370Z,952.05
2017-04-12T22:45:56.036Z,951.99
2017-04-12T22:48:08.362Z,952.02
2017-04-12T22:50:15.603Z,951.99
2017-04-12T22:52:27.923Z,952.07
2017-04-12T22:54:40.251Z,952.07
2017-04-12T22:56:52.628Z,952.03
2017-04-12T22:59:09.461Z,952.14
2017-04-12T23:01:20.265Z,952.11
2017-04-12T23:03:32.499Z,952.09
2017-04-12T23:05:44.838Z,952.08
2017-04-12T23:07:57.209Z,952.15
2017-04-12T23:10:09.676Z,952.1
2017-04-12T23:12:22.021Z,952.21
2017-04-12T23:14:34.395Z,952.19
2017-04-12T23:16:46.604Z,952.16
2017-04-12T23:18:58.905Z,952.1
2017-04-12T23:21:06.200Z,952.12
2017-04-12T23:23:18.561Z,952.16
2017-04-12T23:25:30.882Z,952.13
2017-04-12T23:27:43.153Z,952.09
2017-04-12T23:29:55.575Z,952.1
2017-04-12T23:32:07.889Z,952.17
2017-04-12T23:36:25.908Z,952.15
2017-04-12T23:38:38.206Z,952.2
2017-04-12T23:40:50.652Z,952.18
2017-04-12T23:43:02.908Z,952.15
2017-04-12T23:45:15.466Z,952.18
2017-04-12T23:47:27.892Z,952.16
2017-04-12T23:49:40.119Z,952.13
2017-04-12T23:51:52.245Z,952.09
2017-04-12T23:54:04.623Z,952.1
2017-04-12T23:56:16.851Z,952.09
2017-04-12T23:58:29.108Z,952.09
